Lee's Summit, MO

1:07 AM CDT on March 27, 2017 (GMT -0500)
Lee's Summit Municipal | | Change Station

Elev 1004 ft 38.96 °N, 94.37 °W | Updated 14 minutes ago

Overcast
Overcast
49 °F
Feels Like 49 °F
N
10
Wind Variable Wind from NE

Today
High -- | Low -- °F
--% Chance of Precip.
Yesterday
High -- | Low -- °F
Precip. -- in
Pressure 29.89 in
Visibility 10.0 miles
Clouds Few 5000 ft
Mostly Cloudy 6000 ft
Overcast 8000 ft
Dew Point 46 °F
Humidity 90%
Rainfall 0.00 in
Snow Depth Not available.
7:09 AM 7:36 PM
Waning Crescent, 1% visible
METAR KLXT 270553Z AUTO 04009KT 10SM FEW050 BKN060 OVC080 09/08 A2989 RMK AO2 SLP122 60001 T00940078 10122 20094 401220067 50000 TSNO
Pressure 29.89 in
Visibility 10.0 miles
Clouds Few 5000 ft
Mostly Cloudy 6000 ft
Overcast 8000 ft
Dew Point 46 °F
Humidity 90%
Rainfall 0.00 in
Snow Depth Not available.
7:09 AM 7:36 PM
Waning Crescent, 1% visible
METAR KLXT 270553Z AUTO 04009KT 10SM FEW050 BKN060 OVC080 09/08 A2989 RMK AO2 SLP122 60001 T00940078 10122 20094 401220067 50000 TSNO

Get Severe Weather Alerts

Thanks for signing up!

Be on the lookout for a verification email in your inbox.

You'll start receiving the daily forecast at 8 AM.

×

10-Day Weather Forecast

Almanac

Astronomy

Mar. 27, 2017 Rise Set
Actual Time
Civil Twilight
Nautical Twilight
Astronomical Twilight
Moon
Length of Visible Light
Length of Day
Tomorrow will be .
, % of the Moon is Illuminated

Today's Extremes

State Highs State Lows

Community

WunderPhotos

Upload Photos

1,962,540 photos uploaded!

WunderBlog® & News

Nearby

Air Quality

  Air Quality AQ Index Pollutant
Not available.

Snow Depth

Station Depth Elevation

Earthquake Activity

City Distance Mag. Time & Date
Minimum magnitude displayed is 2.5.

Earthquake Activity

City Distance Mag. Time & Date
Minimum magnitude displayed is 2.5.

Coastal Water Temperatures

Place Temperature

Stations

Nearby Weather Stations

Station Location Temp. Windchill Dew Point Humidity Wind Precip. Elev Updated Type
                   

Watches & Warnings

There are currently no watches in effect.